createdAt,value
2019-02-28T00:05:35.016Z,13.2
2019-02-28T00:10:43.641Z,13.1
2019-02-28T06:36:33.834Z,13
2019-02-28T06:41:42.230Z,13
2019-02-28T06:46:50.907Z,13.1
2019-02-28T06:51:59.436Z,13.2
2019-02-28T06:57:08.029Z,13.3
2019-02-28T07:17:42.351Z,13.9
2019-02-28T07:22:50.852Z,14.3
2019-02-28T07:27:59.357Z,14.7
2019-02-28T07:33:08.843Z,15.1
2019-02-28T07:38:16.469Z,15.4
2019-02-28T07:43:24.702Z,15.9
2019-02-28T07:48:33.182Z,16.4
2019-02-28T07:53:41.522Z,16.7
2019-02-28T08:09:06.486Z,18.2
2019-02-28T08:14:14.723Z,18.7
2019-02-28T08:19:22.908Z,19.3
2019-02-28T08:24:31.079Z,19.9
2019-02-28T08:29:39.204Z,20.3
2019-02-28T08:34:47.304Z,21
2019-02-28T08:45:03.439Z,22.2
2019-02-28T08:50:11.457Z,22.9
2019-02-28T08:55:19.357Z,23.5
2019-02-28T09:00:27.260Z,24.1
2019-02-28T09:05:35.030Z,24.6
2019-02-28T09:10:43.004Z,24.4
2019-02-28T09:15:50.697Z,24.1
2019-02-28T09:20:58.534Z,23.7
2019-02-28T09:26:07.339Z,23.9
2019-02-28T09:31:14.577Z,24.2
2019-02-28T09:36:22.200Z,23.9
2019-02-28T09:46:38.039Z,23.7
2019-02-28T09:51:45.897Z,23.5
2019-02-28T09:56:53.827Z,23.6
2019-02-28T10:02:01.529Z,24
2019-02-28T10:17:24.922Z,26.4
2019-02-28T10:22:32.519Z,27.3
2019-02-28T10:27:40.183Z,27.9
2019-02-28T10:32:47.887Z,28.5
2019-02-28T10:37:55.372Z,29
2019-02-28T10:43:02.787Z,29.5
2019-02-28T10:48:10.270Z,29.5
2019-02-28T10:53:19.231Z,29.3
2019-02-28T10:58:25.297Z,29.2
2019-02-28T11:03:32.918Z,29.2
2019-02-28T11:08:40.409Z,28.6
2019-02-28T11:18:55.567Z,27.8
2019-02-28T11:34:18.213Z,28.9
2019-02-28T11:39:25.872Z,29.5
2019-02-28T11:44:33.305Z,29.7
2019-02-28T11:54:48.303Z,30.1
2019-02-28T11:59:55.791Z,30.1
2019-02-28T12:10:10.786Z,28.9
2019-02-28T12:15:18.443Z,28.4
2019-02-28T12:20:25.902Z,28
2019-02-28T12:25:33.523Z,27.7
2019-02-28T12:30:41.110Z,27.2
2019-02-28T12:35:48.764Z,26.9
2019-02-28T12:46:03.997Z,26.9
2019-02-28T12:51:13.328Z,27.1
2019-02-28T13:11:42.195Z,27.2
2019-02-28T13:21:57.506Z,27.8
2019-02-28T13:27:05.057Z,27.9
2019-02-28T13:32:12.544Z,28.1
2019-02-28T13:37:20.202Z,28
2019-02-28T13:42:27.771Z,28
2019-02-28T13:47:35.325Z,27.9
2019-02-28T13:57:50.524Z,27.6
2019-02-28T14:02:58.064Z,27.5
2019-02-28T14:08:05.700Z,27.3
2019-02-28T14:18:21.013Z,26.9
2019-02-28T14:23:28.645Z,26.7
2019-02-28T14:28:36.260Z,26.6
2019-02-28T14:33:43.919Z,26.3
2019-02-28T14:38:51.582Z,26.2
2019-02-28T14:43:59.305Z,25.9
2019-02-28T14:54:14.782Z,22.6
2019-02-28T15:09:38.789Z,22.4
2019-02-28T15:14:46.793Z,22.5
2019-02-28T15:19:54.677Z,22.4
2019-02-28T15:25:02.604Z,22.4
2019-02-28T15:30:10.570Z,22.4
2019-02-28T15:35:18.560Z,22.4
2019-02-28T15:45:34.428Z,22.1
2019-02-28T15:50:42.459Z,22.2
2019-02-28T16:00:58.486Z,22.1
2019-02-28T16:06:06.370Z,21.9
2019-02-28T16:11:14.387Z,21.9
2019-02-28T16:36:54.471Z,20.7
2019-02-28T16:42:02.630Z,20.6
2019-02-28T16:47:10.491Z,20.5
2019-02-28T16:52:18.648Z,20.2
2019-02-28T17:02:34.964Z,20
2019-02-28T17:12:50.937Z,19.7
2019-02-28T17:23:07.386Z,19.4
2019-02-28T17:28:15.456Z,19.3
2019-02-28T17:33:23.462Z,19.2
2019-02-28T17:38:31.707Z,19
2019-02-28T17:48:48.034Z,19
2019-02-28T17:53:56.297Z,18.8
2019-02-28T18:04:12.550Z,18.7
2019-02-28T18:09:20.702Z,18.6
2019-02-28T18:19:37.065Z,18.5
2019-02-28T18:24:45.126Z,18.5
2019-02-28T18:35:01.523Z,18.3
2019-02-28T18:40:09.805Z,18.3
2019-02-28T18:45:17.939Z,18.2
2019-02-28T18:50:26.192Z,18.2
2019-02-28T18:55:34.447Z,18.1
2019-02-28T19:00:42.617Z,18.1
2019-02-28T19:05:50.771Z,18.2
2019-02-28T19:10:59.048Z,18.3
2019-02-28T19:16:07.278Z,18.1
2019-02-28T19:21:15.482Z,18.1
2019-02-28T19:26:24.545Z,18.2
2019-02-28T19:31:31.786Z,18.1
2019-02-28T19:36:39.995Z,18.1
2019-02-28T19:41:48.206Z,18.1
2019-02-28T19:46:56.493Z,18.1
2019-02-28T19:52:04.778Z,18.1
2019-02-28T20:02:21.073Z,18.2
2019-02-28T20:07:29.366Z,18.1
2019-02-28T20:12:37.581Z,18.2
2019-02-28T20:17:45.763Z,18.2
2019-02-28T20:22:54.195Z,18.1
2019-02-28T20:28:02.226Z,18.1
2019-02-28T20:33:10.324Z,18.1
2019-02-28T20:38:18.607Z,18
2019-02-28T20:43:26.837Z,18
2019-02-28T20:48:34.938Z,18
2019-02-28T20:53:43.181Z,17.9
2019-02-28T20:58:51.392Z,17.9
2019-02-28T21:09:07.844Z,17.7
2019-02-28T21:14:15.976Z,17.8
2019-02-28T21:19:24.275Z,17.6
2019-02-28T21:29:40.734Z,17.5
2019-02-28T21:34:48.948Z,17.4
2019-02-28T21:45:05.492Z,17.2
2019-02-28T21:50:13.739Z,17.2
2019-02-28T21:55:22.048Z,17.1
2019-02-28T22:00:30.417Z,17
2019-02-28T22:05:38.578Z,16.9
2019-02-28T22:10:46.879Z,16.9
2019-02-28T22:15:55.232Z,16.8
2019-02-28T22:21:03.470Z,16.8
2019-02-28T22:31:20.190Z,16.6
2019-02-28T22:36:28.538Z,16.6
2019-02-28T22:41:36.817Z,16.6
2019-02-28T22:46:45.131Z,16.5
2019-02-28T22:51:53.468Z,16.5
2019-02-28T22:57:01.830Z,16.5
2019-02-28T23:02:10.227Z,16.4
2019-02-28T23:07:18.446Z,16.4
2019-02-28T23:12:26.857Z,16.5
2019-02-28T23:17:35.137Z,16.3
2019-02-28T23:27:51.804Z,16.2
2019-02-28T23:33:00.327Z,16.1
2019-02-28T23:38:08.403Z,16.1
2019-02-28T23:43:16.663Z,15.9
2019-02-28T23:48:25.095Z,15.8
2019-02-28T23:53:33.451Z,15.7
2019-02-28T23:58:41.784Z,15.7
